Time;durP1;ratioP1;P1;durP2;ratioP2;P2;SDS_P1;SDS_P2;PMS_P1;PMS_P2;Temp;Humidity;BMP_temperature;BMP_pressure;BME280_temperature;BME280_humidity;BME280_pressure;Samples;Min_cycle;Max_cycle;Signal;HPM_P1;HPM_P2
2021/08/30 00:00:45;;;;;;;23.95;15.73;;;16.40;92.50;;;;;;5135784;27;20026;-48
2021/08/30 00:03:10;;;;;;;25.02;15.70;;;16.40;92.40;;;;;;5135644;27;20052;-46
2021/08/30 00:05:36;;;;;;;26.75;17.30;;;16.40;92.20;;;;;;5135548;27;20483;-47
2021/08/30 00:08:04;;;;;;;26.65;15.80;;;16.50;92.10;;;;;;5135536;27;20023;-53
2021/08/30 00:10:30;;;;;;;22.98;16.63;;;16.50;92.20;;;;;;5083492;27;20038;-49
2021/08/30 00:12:56;;;;;;;23.77;15.65;;;16.40;92.20;;;;;;5135111;27;20035;-46
2021/08/30 00:15:22;;;;;;;28.25;17.10;;;16.40;92.40;;;;;;5134851;27;20023;-47
2021/08/30 00:17:49;;;;;;;24.52;15.27;;;16.40;92.50;;;;;;5135198;27;20020;-48
2021/08/30 00:20:20;;;;;;;27.40;15.63;;;16.50;92.40;;;;;;5135674;27;20027;-48
2021/08/30 00:22:47;;;;;;;22.02;16.13;;;16.40;92.20;;;;;;5116979;27;20023;-51
2021/08/30 00:25:13;;;;;;;22.73;15.73;;;16.40;92.50;;;;;;5135412;27;20051;-51
2021/08/30 00:27:40;;;;;;;25.25;15.05;;;16.30;92.30;;;;;;5134995;27;20030;-48
2021/08/30 00:30:08;;;;;;;24.75;15.45;;;16.40;92.60;;;;;;5116645;27;20038;-46
2021/08/30 00:32:35;;;;;;;25.33;17.30;;;16.40;92.10;;;;;;5134867;27;20364;-48
2021/08/30 00:35:00;;;;;;;19.58;14.50;;;16.40;91.90;;;;;;5134840;27;20023;-47
2021/08/30 00:37:26;;;;;;;30.55;14.88;;;16.50;92.00;;;;;;5135063;27;20363;-47
2021/08/30 00:39:51;;;;;;;25.45;16.02;;;16.50;91.90;;;;;;5116517;27;20069;-47
2021/08/30 00:42:19;;;;;;;22.75;14.18;;;16.50;91.50;;;;;;5116324;27;20027;-49
2021/08/30 00:44:44;;;;;;;23.33;14.32;;;16.40;91.70;;;;;;5134624;27;20073;-51
2021/08/30 00:47:12;;;;;;;24.58;14.90;;;16.40;91.70;;;;;;5134944;27;20051;-48
2021/08/30 00:49:38;;;;;;;23.60;16.40;;;16.30;92.00;;;;;;5134960;27;20374;-47
2021/08/30 00:52:04;;;;;;;19.95;15.10;;;16.40;91.60;;;;;;5134935;27;20034;-46
2021/08/30 00:54:31;;;;;;;21.92;15.15;;;16.40;91.80;;;;;;5134446;27;20580;-47
2021/08/30 00:56:57;;;;;;;25.40;16.58;;;16.30;91.80;;;;;;5134855;27;20019;-46
2021/08/30 00:59:23;;;;;;;19.17;15.55;;;16.30;91.90;;;;;;5134475;27;20017;-49
2021/08/30 01:01:52;;;;;;;24.85;15.27;;;16.40;91.70;;;;;;5134827;27;20451;-47
2021/08/30 01:04:18;;;;;;;23.48;15.15;;;16.40;91.60;;;;;;5134393;27;20023;-48
2021/08/30 01:06:54;;;;;;;24.23;14.77;;;16.30;91.60;;;;;;5115907;27;20035;-48
2021/08/30 01:09:50;;;;;;;28.40;15.65;;;16.30;91.50;;;;;;5134513;27;20026;-47
2021/08/30 01:12:48;;;;;;;23.38;15.48;;;16.30;91.60;;;;;;5134153;27;20063;-49
2021/08/30 01:15:24;;;;;;;24.55;14.70;;;16.30;91.70;;;;;;5114773;27;20508;-49
2021/08/30 01:17:51;;;;;;;27.25;15.93;;;16.30;91.40;;;;;;5134171;27;20404;-48
2021/08/30 01:20:46;;;;;;;25.02;14.45;;;16.30;91.20;;;;;;5134220;27;20409;-49
2021/08/30 01:23:14;;;;;;;20.73;14.18;;;16.30;90.90;;;;;;5134533;27;20068;-45
2021/08/30 01:25:39;;;;;;;21.30;14.32;;;16.30;90.70;;;;;;5133253;27;20023;-47
2021/08/30 01:28:07;;;;;;;28.42;16.23;;;16.30;90.80;;;;;;5134214;27;20102;-47
2021/08/30 01:30:36;;;;;;;22.73;14.70;;;16.30;90.80;;;;;;5134001;27;20102;-50
2021/08/30 01:33:02;;;;;;;34.03;14.52;;;16.30;90.30;;;;;;5134105;27;20023;-46
2021/08/30 01:35:30;;;;;;;19.10;14.07;;;16.30;90.50;;;;;;5133951;27;20019;-48
2021/08/30 01:38:02;;;;;;;24.77;15.45;;;16.30;90.90;;;;;;5133973;28;20015;-47
2021/08/30 01:40:30;;;;;;;26.50;16.42;;;16.30;90.50;;;;;;5134286;28;20463;-49
2021/08/30 01:42:57;;;;;;;24.05;15.63;;;16.30;90.80;;;;;;5134239;28;20023;-48
2021/08/30 01:45:26;;;;;;;21.45;14.13;;;16.30;90.60;;;;;;5116114;28;20031;-48
2021/08/30 01:47:54;;;;;;;19.70;15.38;;;16.30;90.70;;;;;;5133920;28;20023;-48
2021/08/30 01:50:22;;;;;;;26.60;16.10;;;16.30;90.70;;;;;;5133895;28;20028;-47
2021/08/30 01:52:50;;;;;;;24.08;16.25;;;16.20;90.80;;;;;;5133686;28;20205;-47
2021/08/30 02:03:22;;;;;;;28.13;17.15;;;16.30;90.70;;;;;;5134348;28;20026;-47
2021/08/30 02:05:54;;;;;;;22.85;15.27;;;16.30;90.40;;;;;;5134018;28;20110;-46
2021/08/30 02:08:22;;;;;;;29.52;16.15;;;16.30;90.70;;;;;;5115402;28;20103;-46
2021/08/30 02:10:53;;;;;;;28.85;18.05;;;16.20;90.90;;;;;;5133844;28;20047;-46
2021/08/30 02:13:20;;;;;;;23.50;15.68;;;16.30;90.50;;;;;;5115029;28;20019;-45
2021/08/30 02:15:47;;;;;;;25.13;16.63;;;16.20;90.60;;;;;;5133515;28;20027;-47
2021/08/30 02:18:29;;;;;;;33.67;17.63;;;16.20;90.80;;;;;;5133564;28;20089;-47
2021/08/30 02:21:01;;;;;;;30.35;17.27;;;16.20;90.80;;;;;;5133529;28;20459;-47
2021/08/30 02:23:31;;;;;;;29.27;17.83;;;16.30;90.90;;;;;;5098202;28;20490;-51
2021/08/30 02:26:02;;;;;;;26.40;17.38;;;16.20;90.60;;;;;;5133576;28;20023;-47
2021/08/30 02:28:28;;;;;;;;;;;16.20;90.80;;;;;;5133932;28;20023;-48
2021/08/30 02:30:55;;;;;;;21.58;15.45;;;16.20;90.70;;;;;;5133448;28;19998;-48
2021/08/30 02:33:23;;;;;;;25.88;17.77;;;16.20;90.80;;;;;;5133523;28;20027;-48
2021/08/30 02:35:48;;;;;;;27.02;18.15;;;16.20;90.70;;;;;;5133630;28;20027;-46
2021/08/30 02:38:16;;;;;;;25.00;17.10;;;16.20;91.10;;;;;;5136752;27;20015;-46
2021/08/30 02:40:42;;;;;;;27.95;20.08;;;16.10;90.90;;;;;;5137424;27;20031;-47
2021/08/30 02:43:10;;;;;;;34.72;17.77;;;16.10;91.20;;;;;;5137031;27;20024;-49
2021/08/30 02:45:37;;;;;;;26.23;17.70;;;16.10;91.30;;;;;;5137075;27;20038;-46
2021/08/30 02:48:04;;;;;;;25.52;18.35;;;16.10;91.10;;;;;;5118506;27;20482;-46
2021/08/30 02:50:31;;;;;;;27.50;17.52;;;16.10;91.00;;;;;;5136878;27;20095;-46
2021/08/30 02:52:59;;;;;;;30.52;17.55;;;16.00;91.30;;;;;;5136729;27;20047;-47
2021/08/30 02:55:25;;;;;;;28.88;19.23;;;16.00;91.20;;;;;;5136695;27;20037;-48
2021/08/30 02:57:51;;;;;;;29.85;19.35;;;16.00;91.50;;;;;;5136790;27;20352;-47
2021/08/30 03:00:18;;;;;;;26.05;18.45;;;16.10;91.40;;;;;;5136724;27;20030;-47
2021/08/30 03:02:45;;;;;;;25.50;18.63;;;16.10;91.20;;;;;;5135460;27;20026;-49
2021/08/30 03:05:12;;;;;;;27.45;16.92;;;16.10;91.20;;;;;;5136986;27;20023;-47
2021/08/30 03:07:39;;;;;;;26.77;19.27;;;16.10;91.10;;;;;;5136836;27;20027;-48
2021/08/30 03:10:06;;;;;;;25.95;18.65;;;16.00;91.20;;;;;;5136793;27;20027;-48
2021/08/30 03:12:40;;;;;;;32.55;19.77;;;16.10;91.20;;;;;;5136455;27;20057;-48
2021/08/30 03:15:11;;;;;;;25.65;17.30;;;16.10;91.20;;;;;;5135330;27;20035;-48
2021/08/30 03:17:38;;;;;;;27.02;18.55;;;16.00;91.20;;;;;;5136774;27;20063;-47
2021/08/30 03:20:05;;;;;;;26.40;17.90;;;16.10;91.20;;;;;;5136722;27;20097;-48
2021/08/30 03:22:32;;;;;;;35.35;19.48;;;16.10;91.10;;;;;;5136370;27;20061;-47
2021/08/30 03:25:00;;;;;;;27.25;19.23;;;16.00;91.10;;;;;;5136593;27;20084;-48
2021/08/30 03:27:27;;;;;;;27.70;18.98;;;15.90;91.50;;;;;;5136284;27;20051;-48
2021/08/30 03:29:53;;;;;;;30.58;17.98;;;16.00;91.40;;;;;;5136475;27;20394;-49
2021/08/30 03:32:20;;;;;;;25.13;18.30;;;16.00;91.50;;;;;;5136174;27;20149;-50
2021/08/30 03:34:46;;;;;;;28.02;18.48;;;16.00;91.30;;;;;;5136117;27;20035;-48
2021/08/30 03:37:12;;;;;;;28.65;18.65;;;16.10;91.20;;;;;;5136862;27;20312;-49
2021/08/30 03:39:43;;;;;;;23.77;17.63;;;16.10;91.40;;;;;;5136067;27;20101;-47
2021/08/30 03:42:10;;;;;;;24.75;18.77;;;16.00;91.10;;;;;;5135985;27;20030;-47
2021/08/30 03:44:37;;;;;;;25.85;17.40;;;16.00;91.40;;;;;;5117383;27;20023;-48
2021/08/30 03:47:05;;;;;;;32.15;19.27;;;16.10;91.40;;;;;;5135917;27;20023;-47
2021/08/30 03:49:31;;;;;;;28.05;19.17;;;16.10;91.10;;;;;;5134777;27;20081;-46
2021/08/30 03:51:58;;;;;;;32.25;19.30;;;16.00;91.40;;;;;;5135707;27;20367;-48
2021/08/30 03:54:25;;;;;;;24.40;17.83;;;16.10;91.10;;;;;;5135612;27;20051;-51
2021/08/30 03:56:53;;;;;;;34.10;19.20;;;16.10;90.90;;;;;;5135573;27;20106;-49
2021/08/30 03:59:20;;;;;;;30.10;20.60;;;16.10;91.10;;;;;;5134345;27;20015;-47
2021/08/30 04:01:48;;;;;;;31.75;18.98;;;16.10;91.10;;;;;;5117130;27;20019;-49
2021/08/30 04:04:18;;;;;;;28.17;19.83;;;16.10;90.90;;;;;;5135327;27;20016;-46
2021/08/30 04:06:45;;;;;;;32.13;22.45;;;16.00;90.90;;;;;;5135457;27;20027;-50
2021/08/30 04:09:15;;;;;;;30.88;19.33;;;16.10;91.00;;;;;;5135279;27;20115;-46
2021/08/30 04:11:41;;;;;;;;;;;16.10;90.80;;;;;;5136041;27;20027;-47
2021/08/30 04:14:08;;;;;;;30.10;20.73;;;16.20;90.70;;;;;;5136082;27;19997;-46
2021/08/30 04:16:33;;;;;;;33.05;21.13;;;16.20;90.60;;;;;;5133713;27;20027;-47
2021/08/30 04:18:59;;;;;;;29.08;20.15;;;16.10;90.60;;;;;;5135274;27;20076;-47
2021/08/30 04:21:25;;;;;;;32.03;18.88;;;16.20;90.70;;;;;;5134956;27;20531;-50
2021/08/30 04:23:50;;;;;;;32.35;19.95;;;16.10;90.80;;;;;;5135371;27;20027;-48
2021/08/30 04:26:16;;;;;;;29.48;20.27;;;16.10;90.70;;;;;;5134775;27;20037;-47
2021/08/30 04:28:42;;;;;;;30.48;20.75;;;16.00;90.80;;;;;;5135132;27;20027;-50
2021/08/30 04:31:07;;;;;;;25.33;19.48;;;15.90;91.00;;;;;;5134808;27;20421;-51
2021/08/30 04:33:33;;;;;;;30.02;18.90;;;16.00;91.10;;;;;;5133575;27;20401;-46
2021/08/30 04:35:59;;;;;;;29.48;20.00;;;15.90;91.10;;;;;;5135069;27;20031;-47
2021/08/30 04:38:24;;;;;;;29.08;19.88;;;15.90;91.20;;;;;;5134807;27;20145;-48
2021/08/30 04:40:50;;;;;;;30.85;21.23;;;15.90;91.40;;;;;;5135008;27;20374;-48
2021/08/30 04:43:16;;;;;;;31.50;22.13;;;15.90;91.20;;;;;;5134698;27;20177;-49
2021/08/30 04:45:42;;;;;;;32.47;20.60;;;16.00;91.20;;;;;;5135374;27;20050;-50
2021/08/30 04:48:08;;;;;;;33.17;20.38;;;15.80;91.40;;;;;;5134575;27;20023;-47
2021/08/30 04:50:34;;;;;;;36.30;21.75;;;15.80;91.60;;;;;;5134546;27;20033;-46
2021/08/30 04:53:00;;;;;;;40.42;23.58;;;15.80;91.70;;;;;;5134476;27;20456;-49
2021/08/30 04:55:25;;;;;;;39.80;23.60;;;15.80;91.90;;;;;;5134427;27;20028;-50
2021/08/30 04:57:51;;;;;;;36.22;22.85;;;15.90;91.90;;;;;;5134592;27;20019;-48
2021/08/30 05:00:17;;;;;;;36.90;23.20;;;15.90;91.70;;;;;;5134469;27;20030;-48
2021/08/30 05:02:42;;;;;;;32.38;23.92;;;15.80;91.60;;;;;;5134546;27;20102;-48
2021/08/30 05:05:08;;;;;;;35.38;23.40;;;15.80;91.90;;;;;;5134810;27;20427;-47
2021/08/30 05:07:34;;;;;;;33.25;22.65;;;15.80;91.80;;;;;;5134736;27;20030;-48
2021/08/30 05:09:59;;;;;;;33.33;23.45;;;15.80;91.80;;;;;;5134340;27;20061;-49
2021/08/30 05:12:26;;;;;;;36.28;24.55;;;15.80;92.20;;;;;;5134236;27;20054;-51
2021/08/30 05:14:53;;;;;;;41.13;25.13;;;15.80;92.00;;;;;;5132932;27;20379;-51
2021/08/30 05:17:19;;;;;;;35.97;22.70;;;15.80;92.00;;;;;;5134236;27;20018;-48
2021/08/30 05:19:45;;;;;;;36.25;22.52;;;15.80;92.00;;;;;;5134029;27;20019;-50
2021/08/30 05:22:13;;;;;;;33.50;24.00;;;15.80;91.90;;;;;;5133802;27;20015;-48
2021/08/30 05:24:39;;;;;;;37.58;24.08;;;15.90;92.00;;;;;;5134172;27;20019;-50
2021/08/30 05:27:05;;;;;;;40.58;24.92;;;16.10;91.90;;;;;;5132666;27;20108;-47
2021/08/30 05:29:30;;;;;;;39.58;23.52;;;16.20;91.40;;;;;;5133810;27;20069;-48
2021/08/30 05:31:57;;;;;;;37.90;24.27;;;16.30;91.00;;;;;;5133986;27;20478;-46
2021/08/30 05:34:23;;;;;;;38.00;24.80;;;16.30;90.90;;;;;;5133709;27;20107;-48
2021/08/30 05:36:49;;;;;;;36.58;24.27;;;16.20;91.10;;;;;;5132155;27;20446;-49
2021/08/30 05:39:15;;;;;;;34.85;22.95;;;16.20;91.10;;;;;;5133595;28;20019;-46
2021/08/30 05:41:41;;;;;;;42.63;26.33;;;16.30;90.90;;;;;;5132579;28;20019;-48
2021/08/30 05:44:10;;;;;;;37.83;23.40;;;16.30;91.20;;;;;;5132194;28;20035;-47
2021/08/30 05:46:36;;;;;;;37.35;23.73;;;16.30;91.30;;;;;;5133785;28;20037;-48
2021/08/30 05:49:02;;;;;;;43.92;27.02;;;16.30;91.30;;;;;;5133807;28;20483;-50
2021/08/30 05:51:28;;;;;;;38.15;25.48;;;16.30;91.40;;;;;;5132106;28;20038;-47
2021/08/30 05:53:53;;;;;;;33.13;23.05;;;16.30;91.40;;;;;;5133394;27;20379;-46
2021/08/30 05:56:19;;;;;;;43.88;25.00;;;16.30;91.20;;;;;;5133475;28;20059;-47
2021/08/30 05:58:45;;;;;;;34.63;22.25;;;16.40;91.20;;;;;;5133508;28;20048;-48
2021/08/30 06:01:10;;;;;;;43.58;26.73;;;16.40;91.20;;;;;;5133476;28;20028;-48
2021/08/30 06:03:36;;;;;;;40.80;25.48;;;16.40;91.00;;;;;;5133308;28;20034;-48
2021/08/30 06:06:02;;;;;;;37.42;24.75;;;16.50;91.10;;;;;;5133612;27;20386;-48
2021/08/30 06:08:28;;;;;;;35.63;22.85;;;16.50;91.00;;;;;;5132095;28;20030;-47
2021/08/30 06:10:56;;;;;;;35.75;23.35;;;16.50;90.90;;;;;;5133371;27;20023;-48
2021/08/30 06:13:23;;;;;;;41.65;22.70;;;16.50;90.80;;;;;;5135685;27;20534;-48
2021/08/30 06:15:49;;;;;;;34.72;23.58;;;16.50;91.00;;;;;;5135951;27;20026;-47
2021/08/30 06:18:15;;;;;;;44.17;23.80;;;16.70;90.70;;;;;;5137484;27;20024;-50
2021/08/30 06:20:41;;;;;;;38.42;23.17;;;16.70;90.50;;;;;;5137534;27;20023;-49
2021/08/30 06:23:07;;;;;;;33.70;22.27;;;16.70;90.40;;;;;;5137738;27;20352;-49
2021/08/30 06:25:33;;;;;;;47.50;26.58;;;16.70;90.50;;;;;;5136019;27;20031;-49
2021/08/30 06:27:59;;;;;;;33.70;23.85;;;16.70;90.50;;;;;;5137672;27;20023;-47
2021/08/30 06:30:25;;;;;;;35.05;23.40;;;16.70;90.70;;;;;;5137211;27;20117;-51
2021/08/30 06:32:51;;;;;;;38.85;23.20;;;16.70;90.70;;;;;;5137018;27;20029;-48
2021/08/30 06:35:16;;;;;;;34.92;23.13;;;16.80;90.20;;;;;;5136938;27;20081;-48
2021/08/30 06:37:42;;;;;;;35.38;22.65;;;16.70;90.40;;;;;;5137306;27;20043;-47
2021/08/30 06:40:09;;;;;;;32.47;22.75;;;16.90;90.10;;;;;;5137190;27;20085;-48
2021/08/30 06:42:35;;;;;;;27.98;20.73;;;17.00;89.60;;;;;;5137096;27;20019;-49
2021/08/30 06:45:01;;;;;;;33.38;21.55;;;17.00;89.50;;;;;;5136920;27;20035;-49
2021/08/30 06:47:26;;;;;;;33.50;22.80;;;17.00;89.30;;;;;;5136980;27;20031;-48
2021/08/30 06:49:52;;;;;;;35.30;23.35;;;17.00;89.30;;;;;;5136802;27;20030;-50
2021/08/30 06:52:18;;;;;;;33.30;22.30;;;17.00;89.50;;;;;;5136855;27;20023;-47
2021/08/30 06:54:44;;;;;;;31.33;20.60;;;17.00;89.50;;;;;;5136890;27;20145;-49
2021/08/30 06:57:09;;;;;;;34.30;22.15;;;17.10;89.10;;;;;;5136782;27;20036;-47
2021/08/30 06:59:35;;;;;;;33.17;22.55;;;17.20;88.70;;;;;;5136406;27;20069;-50
2021/08/30 07:02:01;;;;;;;30.67;20.65;;;17.20;88.70;;;;;;5136402;27;20098;-51
2021/08/30 07:04:26;;;;;;;32.58;19.95;;;17.20;88.60;;;;;;5136606;27;20458;-49
2021/08/30 07:06:52;;;;;;;34.33;21.75;;;17.30;88.40;;;;;;5136986;27;20102;-49
2021/08/30 07:09:18;;;;;;;32.83;20.75;;;17.30;88.40;;;;;;5136491;27;20019;-48
2021/08/30 07:11:43;;;;;;;37.53;19.92;;;17.50;87.60;;;;;;5157865;27;20468;-48
2021/08/30 07:14:09;;;;;;;34.53;21.27;;;17.80;86.80;;;;;;5157075;27;20102;-49
2021/08/30 07:16:35;;;;;;;25.67;18.58;;;17.80;86.50;;;;;;5156696;27;20026;-47
2021/08/30 07:19:00;;;;;;;28.20;20.25;;;17.90;86.20;;;;;;5156879;27;20056;-49
2021/08/30 07:21:28;;;;;;;29.30;19.10;;;18.10;85.90;;;;;;5156818;27;20067;-49
2021/08/30 07:23:55;;;;;;;25.17;18.60;;;18.00;85.70;;;;;;5156855;27;20098;-52
2021/08/30 07:26:20;;;;;;;25.10;18.83;;;18.10;85.80;;;;;;5156725;27;20031;-49
2021/08/30 07:28:46;;;;;;;29.77;20.65;;;18.10;85.40;;;;;;5156885;27;20030;-50
2021/08/30 07:31:12;;;;;;;28.02;19.48;;;18.00;85.20;;;;;;5156946;27;20038;-49
2021/08/30 07:33:38;;;;;;;28.00;19.65;;;17.80;86.20;;;;;;5156397;27;20106;-48
2021/08/30 07:36:04;;;;;;;26.40;18.25;;;17.70;86.60;;;;;;5156408;27;20132;-48
2021/08/30 07:38:29;;;;;;;30.05;19.52;;;17.70;86.50;;;;;;5156465;27;20450;-48
2021/08/30 07:40:55;;;;;;;28.92;20.65;;;17.60;86.60;;;;;;5156666;27;20091;-51
2021/08/30 07:43:21;;;;;;;33.35;21.35;;;17.70;86.70;;;;;;5156362;27;20090;-47
2021/08/30 07:45:46;;;;;;;30.10;19.80;;;17.80;86.50;;;;;;5156767;27;20031;-48
2021/08/30 07:48:12;;;;;;;32.80;21.52;;;17.80;86.00;;;;;;5156408;27;20080;-47
2021/08/30 07:50:38;;;;;;;28.00;18.90;;;17.80;86.30;;;;;;5138086;27;20095;-48
2021/08/30 07:53:03;;;;;;;31.05;22.65;;;17.80;85.90;;;;;;5155781;27;20095;-48
2021/08/30 07:55:34;;;;;;;30.30;18.83;;;17.80;85.90;;;;;;5155327;27;20466;-48
2021/08/30 07:58:00;;;;;;;36.67;20.55;;;18.20;85.40;;;;;;5156817;27;20093;-50
2021/08/30 08:00:26;;;;;;;25.83;19.85;;;18.30;84.20;;;;;;5156015;27;20054;-47
2021/08/30 08:02:52;;;;;;;25.02;17.52;;;18.30;84.20;;;;;;5137214;27;20029;-47
2021/08/30 08:05:18;;;;;;;26.95;16.95;;;18.40;83.80;;;;;;5156222;27;20327;-52
2021/08/30 08:07:44;;;;;;;22.13;16.00;;;18.50;83.30;;;;;;5156597;27;20035;-51
2021/08/30 08:10:10;;;;;;;23.90;17.58;;;18.40;83.10;;;;;;5156538;27;20485;-51
2021/08/30 08:12:36;;;;;;;23.67;17.33;;;18.30;83.60;;;;;;5155955;27;20176;-50
2021/08/30 08:15:06;;;;;;;25.65;19.45;;;18.40;83.70;;;;;;5137146;27;20023;-49
2021/08/30 08:17:34;;;;;;;21.27;15.67;;;18.70;83.60;;;;;;5155534;27;20019;-48
2021/08/30 08:20:00;;;;;;;21.92;16.60;;;18.90;82.10;;;;;;5155111;27;20264;-49
2021/08/30 08:22:26;;;;;;;25.83;17.55;;;18.90;82.10;;;;;;5155335;27;20018;-49
2021/08/30 08:24:54;;;;;;;27.83;17.27;;;19.00;81.50;;;;;;5155328;27;20046;-48
2021/08/30 08:27:20;;;;;;;24.95;17.55;;;18.90;81.90;;;;;;5155467;27;20363;-51
2021/08/30 08:29:46;;;;;;;20.83;16.75;;;19.00;81.90;;;;;;5136615;27;20075;-48
2021/08/30 08:32:11;;;;;;;23.98;17.30;;;19.00;81.50;;;;;;5155337;27;20068;-49
2021/08/30 08:34:37;;;;;;;23.60;17.67;;;18.80;81.80;;;;;;5154566;27;20102;-52
2021/08/30 08:37:05;;;;;;;22.15;17.63;;;19.10;82.10;;;;;;5155163;27;20023;-51
2021/08/30 08:39:31;;;;;;;26.02;18.00;;;19.30;80.80;;;;;;5155805;27;20034;-50
2021/08/30 08:41:58;;;;;;;21.02;15.80;;;19.20;80.20;;;;;;5155181;27;20092;-49
2021/08/30 08:44:24;;;;;;;25.05;16.27;;;19.10;81.50;;;;;;5136181;27;20335;-48
2021/08/30 08:46:49;;;;;;;21.02;17.25;;;19.00;81.20;;;;;;5154943;27;20026;-49
2021/08/30 08:49:15;;;;;;;23.80;17.23;;;19.20;81.10;;;;;;5155054;27;20078;-48
2021/08/30 08:51:41;;;;;;;21.17;16.83;;;19.10;81.20;;;;;;5136297;27;20022;-50
2021/08/30 08:54:07;;;;;;;27.80;17.33;;;19.00;82.10;;;;;;5154577;27;20054;-50
2021/08/30 08:56:34;;;;;;;24.92;16.52;;;19.00;81.60;;;;;;5154331;27;20386;-49
2021/08/30 08:58:59;;;;;;;24.90;18.33;;;18.60;82.50;;;;;;5154502;27;20023;-48
2021/08/30 09:01:27;;;;;;;30.38;20.83;;;18.30;83.00;;;;;;5135527;27;20110;-48
2021/08/30 09:03:57;;;;;;;27.27;18.40;;;18.30;83.50;;;;;;5135695;27;20043;-48
2021/08/30 09:06:23;;;;;;;;;;;18.30;83.50;;;;;;5120159;27;20071;-47
2021/08/30 09:08:56;;;;;;;24.27;18.10;;;18.40;83.10;;;;;;5154908;27;19903;-47
2021/08/30 09:11:23;;;;;;;24.92;17.17;;;18.50;82.70;;;;;;5155058;27;20450;-49
2021/08/30 09:13:54;;;;;;;25.52;18.23;;;18.60;82.60;;;;;;5154811;27;20355;-48
2021/08/30 09:16:22;;;;;;;24.85;17.30;;;18.70;82.30;;;;;;5154687;27;20023;-50
2021/08/30 09:18:48;;;;;;;23.83;17.88;;;18.80;82.20;;;;;;5136430;27;20415;-50
2021/08/30 09:21:18;;;;;;;24.80;16.90;;;18.90;81.90;;;;;;5154610;27;20019;-49
2021/08/30 09:23:45;;;;;;;30.13;17.08;;;18.90;81.70;;;;;;5154322;27;20036;-51
2021/08/30 09:26:19;;;;;;;21.77;16.42;;;18.90;81.00;;;;;;5154242;27;20355;-49
2021/08/30 09:28:58;;;;;;;25.60;17.63;;;18.80;81.90;;;;;;5154452;27;20022;-48
2021/08/30 09:31:24;;;;;;;21.45;16.73;;;18.70;81.70;;;;;;5154502;27;20072;-51
2021/08/30 09:33:53;;;;;;;23.83;16.45;;;18.70;82.10;;;;;;5154394;27;20326;-49
2021/08/30 09:36:20;;;;;;;22.10;16.42;;;18.80;81.90;;;;;;5154267;27;20026;-47
2021/08/30 09:38:53;;;;;;;26.08;15.68;;;18.70;82.20;;;;;;5154539;27;20082;-51
2021/08/30 09:41:19;;;;;;;22.45;16.50;;;18.80;81.40;;;;;;5154343;27;20515;-50
2021/08/30 09:43:45;;;;;;;23.38;17.15;;;18.80;81.70;;;;;;5154439;27;20072;-49
2021/08/30 09:46:11;;;;;;;20.77;16.70;;;18.90;81.00;;;;;;5154101;27;20038;-49
2021/08/30 09:48:42;;;;;;;22.75;16.23;;;18.90;81.20;;;;;;5157912;27;20026;-50
2021/08/30 09:51:08;;;;;;;24.40;16.70;;;18.80;81.60;;;;;;5158342;27;20035;-51
2021/08/30 09:53:34;;;;;;;19.88;15.30;;;18.80;81.90;;;;;;5157941;27;20510;-52
2021/08/30 09:56:01;;;;;;;21.98;16.45;;;18.90;81.40;;;;;;5139658;27;20159;-48
2021/08/30 09:58:29;;;;;;;21.02;17.00;;;19.00;81.00;;;;;;5158241;27;20026;-48
2021/08/30 10:01:02;;;;;;;18.05;14.38;;;19.30;80.20;;;;;;5158313;27;20496;-48
2021/08/30 10:03:39;;;;;;;24.65;16.17;;;19.50;79.80;;;;;;5157766;27;20071;-50
2021/08/30 10:06:07;;;;;;;24.25;16.85;;;19.40;79.30;;;;;;5139623;27;20054;-48
2021/08/30 10:08:35;;;;;;;25.70;16.13;;;19.20;79.70;;;;;;5139503;27;20514;-48
2021/08/30 10:11:01;;;;;;;21.92;14.30;;;19.10;80.10;;;;;;5157905;27;20079;-51
2021/08/30 10:13:27;;;;;;;20.95;15.10;;;19.30;79.90;;;;;;5157681;27;20030;-51
2021/08/30 10:15:53;;;;;;;20.40;15.60;;;19.20;79.40;;;;;;5157323;27;20378;-50
2021/08/30 10:18:20;;;;;;;18.05;13.82;;;19.00;80.30;;;;;;5157871;27;20546;-50
2021/08/30 10:20:50;;;;;;;21.27;15.70;;;19.00;79.60;;;;;;5158027;27;20025;-50
2021/08/30 10:23:18;;;;;;;19.52;15.05;;;19.10;80.20;;;;;;5158250;27;20018;-49
2021/08/30 10:25:56;;;;;;;21.27;14.30;;;19.10;79.80;;;;;;5157948;27;20026;-50
2021/08/30 10:28:32;;;;;;;18.48;14.90;;;19.10;80.00;;;;;;5158477;27;20038;-48
2021/08/30 10:30:58;;;;;;;19.45;15.43;;;19.30;79.60;;;;;;5157652;27;20019;-50
2021/08/30 10:33:24;;;;;;;19.05;14.63;;;19.30;78.80;;;;;;5138871;27;20460;-47
2021/08/30 10:35:50;;;;;;;18.50;14.70;;;19.30;78.80;;;;;;5157472;27;20423;-49
2021/08/30 10:38:19;;;;;;;20.15;15.07;;;19.50;78.50;;;;;;5138388;27;20057;-49
2021/08/30 10:40:53;;;;;;;23.05;13.20;;;19.50;78.40;;;;;;5157638;27;20022;-49
2021/08/30 10:43:28;;;;;;;20.25;15.25;;;19.50;78.20;;;;;;5138613;27;20478;-47
2021/08/30 10:45:58;;;;;;;16.90;13.77;;;19.30;78.40;;;;;;5158216;27;20027;-48
2021/08/30 10:48:35;;;;;;;19.30;14.13;;;19.30;78.60;;;;;;5138221;27;20022;-48
2021/08/30 10:51:13;;;;;;;21.83;14.25;;;19.50;78.30;;;;;;5157251;27;20029;-49
2021/08/30 10:53:38;;;;;;;18.25;13.90;;;19.70;77.50;;;;;;5156975;27;20057;-48
2021/08/30 10:56:09;;;;;;;18.98;13.43;;;19.90;77.30;;;;;;5156911;27;20106;-47
2021/08/30 10:58:35;;;;;;;16.35;12.93;;;20.50;74.10;;;;;;5156489;27;20011;-48
2021/08/30 11:01:11;;;;;;;18.35;12.40;;;20.40;74.50;;;;;;5156741;27;20030;-49
2021/08/30 11:03:39;;;;;;;17.95;12.20;;;20.40;74.50;;;;;;5157008;27;20071;-51
2021/08/30 11:06:08;;;;;;;16.10;12.38;;;20.80;74.00;;;;;;5156571;27;20482;-51
2021/08/30 11:08:36;;;;;;;19.23;12.82;;;20.80;72.50;;;;;;5156892;27;20030;-49
2021/08/30 11:11:18;;;;;;;16.17;11.98;;;20.50;73.50;;;;;;5156905;27;20069;-49
2021/08/30 11:14:07;;;;;;;16.95;12.38;;;20.90;72.30;;;;;;5156884;27;20465;-51
2021/08/30 11:16:35;;;;;;;13.50;12.00;;;21.70;70.20;;;;;;5156951;27;20402;-50
2021/08/30 11:19:03;;;;;;;14.98;11.52;;;21.70;68.50;;;;;;5156742;27;20357;-51
2021/08/30 11:21:34;;;;;;;16.33;10.63;;;21.40;69.70;;;;;;5156553;27;20079;-46
2021/08/30 11:24:00;;;;;;;15.90;10.55;;;21.40;70.10;;;;;;5156689;27;20022;-51
2021/08/30 11:26:25;;;;;;;15.30;11.93;;;21.50;68.20;;;;;;5137698;27;20163;-47
2021/08/30 11:28:56;;;;;;;16.67;10.65;;;21.50;69.10;;;;;;5137356;27;20027;-50
2021/08/30 11:31:27;;;;;;;19.48;10.73;;;22.30;66.90;;;;;;5137426;27;20026;-48
2021/08/30 11:33:53;;;;;;;15.13;12.07;;;22.80;64.90;;;;;;5137088;27;20029;-49
2021/08/30 11:36:19;;;;;;;11.93;10.45;;;22.40;64.90;;;;;;5156364;27;20030;-48
2021/08/30 11:38:54;;;;;;;15.70;10.00;;;22.90;64.30;;;;;;5156138;27;20027;-48
2021/08/30 11:41:20;;;;;;;11.80;8.82;;;23.00;62.00;;;;;;5156115;27;20358;-47
2021/08/30 11:43:48;;;;;;;13.15;8.98;;;22.00;65.00;;;;;;5155740;27;20025;-49
2021/08/30 11:46:14;;;;;;;11.88;8.68;;;22.60;64.70;;;;;;5156356;27;20079;-49
2021/08/30 11:48:40;;;;;;;11.25;8.90;;;22.80;62.60;;;;;;5156096;27;20023;-48
2021/08/30 11:51:06;;;;;;;12.13;9.02;;;22.60;62.90;;;;;;5156012;27;20023;-49
2021/08/30 11:53:32;;;;;;;11.18;8.25;;;23.10;62.30;;;;;;5155626;27;20047;-48
2021/08/30 11:55:58;;;;;;;12.48;8.48;;;23.00;62.10;;;;;;5155836;27;20495;-48
2021/08/30 11:58:33;;;;;;;11.90;8.05;;;22.70;61.30;;;;;;5155925;27;20046;-49
2021/08/30 12:01:06;;;;;;;9.88;8.25;;;22.00;63.40;;;;;;5155799;27;20103;-49
2021/08/30 12:03:43;;;;;;;11.60;7.78;;;21.60;64.60;;;;;;5155734;27;20046;-48
2021/08/30 12:06:18;;;;;;;8.43;7.53;;;21.70;64.30;;;;;;5155891;27;20023;-48
2021/08/30 12:08:51;;;;;;;8.38;7.25;;;21.70;64.50;;;;;;5137336;27;20023;-47
2021/08/30 12:11:18;;;;;;;10.52;7.57;;;21.50;64.20;;;;;;5156032;27;20030;-49
2021/08/30 12:16:25;;;;;;;10.68;8.20;;;21.80;63.20;;;;;;5155280;27;20088;-49
2021/08/30 12:18:55;;;;;;;10.82;7.07;;;22.00;62.60;;;;;;5155260;27;20545;-49
2021/08/30 12:21:48;;;;;;;12.75;7.68;;;22.30;61.80;;;;;;5155345;27;20043;-49
2021/08/30 12:24:19;;;;;;;8.82;7.50;;;22.90;58.40;;;;;;5152314;27;20118;-49
2021/08/30 12:26:48;;;;;;;10.52;7.28;;;22.20;60.60;;;;;;5155056;27;20041;-50
2021/08/30 12:29:14;;;;;;;10.00;6.45;;;22.00;61.20;;;;;;5136730;27;20042;-48
2021/08/30 12:31:40;;;;;;;7.88;6.15;;;21.80;61.10;;;;;;5154986;27;20045;-51
2021/08/30 12:34:12;;;;;;;11.25;7.20;;;21.80;60.90;;;;;;5154799;27;20026;-51
2021/08/30 12:36:39;;;;;;;9.15;5.82;;;22.40;56.80;;;;;;5154608;27;20366;-49
2021/08/30 12:39:06;;;;;;;7.63;6.63;;;23.50;55.50;;;;;;5154798;27;20019;-48
2021/08/30 12:41:33;;;;;;;7.68;5.68;;;23.70;54.70;;;;;;5154846;27;20101;-47